sensor_id;sensor_type;location;lat;lon;timestamp;temperature;humidity
3310;DHT22;1667;53.238;10.394;2023-02-04T00:04:52;6.90;99.90
3310;DHT22;1667;53.238;10.394;2023-02-04T00:09:50;6.80;99.90
3310;DHT22;1667;53.238;10.394;2023-02-04T00:14:49;7.30;99.90
3310;DHT22;1667;53.238;10.394;2023-02-04T00:19:49;7.00;99.90
3310;DHT22;1667;53.238;10.394;2023-02-04T00:25:12;7.00;99.90
3310;DHT22;1667;53.238;10.394;2023-02-04T00:30:12;7.20;99.90
3310;DHT22;1667;53.238;10.394;2023-02-04T00:35:12;7.20;99.90
3310;DHT22;1667;53.238;10.394;2023-02-04T00:40:12;7.40;99.90
3310;DHT22;1667;53.238;10.394;2023-02-04T00:45:10;7.20;99.90
3310;DHT22;1667;53.238;10.394;2023-02-04T00:50:09;7.30;99.90
3310;DHT22;1667;53.238;10.394;2023-02-04T00:55:09;7.00;99.90
3310;DHT22;1667;53.238;10.394;2023-02-04T01:00:09;7.10;99.90
3310;DHT22;1667;53.238;10.394;2023-02-04T01:05:08;7.10;99.90
3310;DHT22;1667;53.238;10.394;2023-02-04T01:10:09;7.10;99.90
3310;DHT22;1667;53.238;10.394;2023-02-04T01:15:09;7.10;99.90
3310;DHT22;1667;53.238;10.394;2023-02-04T01:20:09;7.10;99.90
3310;DHT22;1667;53.238;10.394;2023-02-04T01:25:09;6.80;99.90
3310;DHT22;1667;53.238;10.394;2023-02-04T01:30:12;6.70;99.90
3310;DHT22;1667;53.238;10.394;2023-02-04T01:35:11;6.80;99.90
3310;DHT22;1667;53.238;10.394;2023-02-04T01:40:12;6.90;99.90
3310;DHT22;1667;53.238;10.394;2023-02-04T01:45:10;6.80;99.90
3310;DHT22;1667;53.238;10.394;2023-02-04T01:50:10;6.80;99.90
3310;DHT22;1667;53.238;10.394;2023-02-04T01:55:15;6.80;99.90
3310;DHT22;1667;53.238;10.394;2023-02-04T02:00:16;7.00;99.90
3310;DHT22;1667;53.238;10.394;2023-02-04T02:05:19;6.90;99.90
3310;DHT22;1667;53.238;10.394;2023-02-04T02:10:20;7.40;99.90
3310;DHT22;1667;53.238;10.394;2023-02-04T02:15:19;7.10;99.90
3310;DHT22;1667;53.238;10.394;2023-02-04T02:20:20;7.20;99.90
3310;DHT22;1667;53.238;10.394;2023-02-04T02:25:21;7.30;99.90
3310;DHT22;1667;53.238;10.394;2023-02-04T02:30:19;7.60;99.90
3310;DHT22;1667;53.238;10.394;2023-02-04T02:35:19;7.20;99.90
3310;DHT22;1667;53.238;10.394;2023-02-04T02:40:18;7.30;99.90
3310;DHT22;1667;53.238;10.394;2023-02-04T02:45:21;7.20;99.90
3310;DHT22;1667;53.238;10.394;2023-02-04T02:50:24;7.60;99.90
3310;DHT22;1667;53.238;10.394;2023-02-04T02:55:25;7.20;99.90
3310;DHT22;1667;53.238;10.394;2023-02-04T03:00:28;7.10;99.90
3310;DHT22;1667;53.238;10.394;2023-02-04T03:05:29;7.10;99.90
3310;DHT22;1667;53.238;10.394;2023-02-04T03:10:30;7.40;99.90
3310;DHT22;1667;53.238;10.394;2023-02-04T03:15:30;7.20;99.90
3310;DHT22;1667;53.238;10.394;2023-02-04T03:20:30;7.50;99.90
3310;DHT22;1667;53.238;10.394;2023-02-04T03:25:30;7.20;99.90
3310;DHT22;1667;53.238;10.394;2023-02-04T03:30:29;7.20;99.90
3310;DHT22;1667;53.238;10.394;2023-02-04T03:35:29;7.20;99.90
3310;DHT22;1667;53.238;10.394;2023-02-04T03:40:27;7.10;99.90
3310;DHT22;1667;53.238;10.394;2023-02-04T03:45:26;7.10;99.90
3310;DHT22;1667;53.238;10.394;2023-02-04T03:50:41;7.10;99.90
3310;DHT22;1667;53.238;10.394;2023-02-04T03:55:40;7.10;99.90
3310;DHT22;1667;53.238;10.394;2023-02-04T04:00:38;7.10;99.90
3310;DHT22;1667;53.238;10.394;2023-02-04T04:05:37;7.10;99.90
3310;DHT22;1667;53.238;10.394;2023-02-04T04:10:37;7.10;99.90
3310;DHT22;1667;53.238;10.394;2023-02-04T04:15:37;7.30;99.90
3310;DHT22;1667;53.238;10.394;2023-02-04T04:20:36;7.10;99.90
3310;DHT22;1667;53.238;10.394;2023-02-04T04:25:36;7.10;99.90
3310;DHT22;1667;53.238;10.394;2023-02-04T04:30:35;7.00;99.90
3310;DHT22;1667;53.238;10.394;2023-02-04T04:35:34;7.00;99.90
3310;DHT22;1667;53.238;10.394;2023-02-04T04:40:32;7.00;99.90
3310;DHT22;1667;53.238;10.394;2023-02-04T04:45:32;7.00;99.90
3310;DHT22;1667;53.238;10.394;2023-02-04T04:50:31;7.30;99.90
3310;DHT22;1667;53.238;10.394;2023-02-04T04:55:30;7.00;99.90
3310;DHT22;1667;53.238;10.394;2023-02-04T05:00:29;7.20;99.90
3310;DHT22;1667;53.238;10.394;2023-02-04T05:05:30;7.10;99.90
3310;DHT22;1667;53.238;10.394;2023-02-04T05:10:28;7.10;99.90
3310;DHT22;1667;53.238;10.394;2023-02-04T05:15:27;7.10;99.90
3310;DHT22;1667;53.238;10.394;2023-02-04T05:20:26;7.10;99.90
3310;DHT22;1667;53.238;10.394;2023-02-04T05:25:26;7.20;99.90
3310;DHT22;1667;53.238;10.394;2023-02-04T05:30:25;7.20;99.90
3310;DHT22;1667;53.238;10.394;2023-02-04T05:35:24;7.50;99.90
3310;DHT22;1667;53.238;10.394;2023-02-04T05:40:22;7.10;99.90
3310;DHT22;1667;53.238;10.394;2023-02-04T05:45:22;7.20;99.90
3310;DHT22;1667;53.238;10.394;2023-02-04T05:50:21;7.20;99.90
3310;DHT22;1667;53.238;10.394;2023-02-04T05:55:19;7.20;99.90
3310;DHT22;1667;53.238;10.394;2023-02-04T06:00:18;7.50;99.90
3310;DHT22;1667;53.238;10.394;2023-02-04T06:05:18;7.20;99.90
3310;DHT22;1667;53.238;10.394;2023-02-04T06:10:16;7.20;99.90
3310;DHT22;1667;53.238;10.394;2023-02-04T06:15:17;7.10;99.90
3310;DHT22;1667;53.238;10.394;2023-02-04T06:27:06;7.10;99.90
3310;DHT22;1667;53.238;10.394;2023-02-04T06:32:04;7.50;99.90
3310;DHT22;1667;53.238;10.394;2023-02-04T06:37:03;7.10;99.90
3310;DHT22;1667;53.238;10.394;2023-02-04T06:42:01;7.30;99.90
3310;DHT22;1667;53.238;10.394;2023-02-04T06:47:02;7.10;99.90
3310;DHT22;1667;53.238;10.394;2023-02-04T06:52:01;7.10;99.90
3310;DHT22;1667;53.238;10.394;2023-02-04T06:57:00;7.00;99.90
3310;DHT22;1667;53.238;10.394;2023-02-04T07:02:05;7.00;99.90
3310;DHT22;1667;53.238;10.394;2023-02-04T07:07:04;7.20;99.90
3310;DHT22;1667;53.238;10.394;2023-02-04T07:12:02;6.80;99.90
3310;DHT22;1667;53.238;10.394;2023-02-04T07:17:01;6.80;99.90
3310;DHT22;1667;53.238;10.394;2023-02-04T07:22:02;7.10;99.90
3310;DHT22;1667;53.238;10.394;2023-02-04T07:27:00;7.20;99.90
3310;DHT22;1667;53.238;10.394;2023-02-04T07:31:59;6.80;99.90
3310;DHT22;1667;53.238;10.394;2023-02-04T07:36:57;6.70;99.90
3310;DHT22;1667;53.238;10.394;2023-02-04T07:41:57;7.00;99.90
3310;DHT22;1667;53.238;10.394;2023-02-04T07:47:02;6.90;99.90
3310;DHT22;1667;53.238;10.394;2023-02-04T07:52:01;6.70;99.90
3310;DHT22;1667;53.238;10.394;2023-02-04T07:57:00;7.00;99.90
3310;DHT22;1667;53.238;10.394;2023-02-04T08:01:59;6.60;99.90
3310;DHT22;1667;53.238;10.394;2023-02-04T08:06:58;6.70;99.90
3310;DHT22;1667;53.238;10.394;2023-02-04T08:11:56;6.60;99.90
3310;DHT22;1667;53.238;10.394;2023-02-04T08:16:57;6.80;99.90
3310;DHT22;1667;53.238;10.394;2023-02-04T08:21:55;6.70;99.90
3310;DHT22;1667;53.238;10.394;2023-02-04T08:26:54;6.70;99.90
3310;DHT22;1667;53.238;10.394;2023-02-04T08:31:54;6.70;99.90
3310;DHT22;1667;53.238;10.394;2023-02-04T08:36:54;6.80;99.90
3310;DHT22;1667;53.238;10.394;2023-02-04T08:41:53;6.80;99.90
3310;DHT22;1667;53.238;10.394;2023-02-04T08:46:51;6.80;99.90
3310;DHT22;1667;53.238;10.394;2023-02-04T08:51:49;6.50;99.90
3310;DHT22;1667;53.238;10.394;2023-02-04T08:56:49;6.50;99.90
3310;DHT22;1667;53.238;10.394;2023-02-04T09:01:48;6.70;99.90
3310;DHT22;1667;53.238;10.394;2023-02-04T09:06:49;6.50;99.90
3310;DHT22;1667;53.238;10.394;2023-02-04T09:11:48;6.30;99.90
3310;DHT22;1667;53.238;10.394;2023-02-04T09:23:43;6.10;99.90
3310;DHT22;1667;53.238;10.394;2023-02-04T09:28:44;6.00;99.90
3310;DHT22;1667;53.238;10.394;2023-02-04T09:33:44;6.40;99.90
3310;DHT22;1667;53.238;10.394;2023-02-04T09:38:42;6.40;99.90
3310;DHT22;1667;53.238;10.394;2023-02-04T09:43:44;6.40;99.90
3310;DHT22;1667;53.238;10.394;2023-02-04T09:48:43;6.80;99.90
3310;DHT22;1667;53.238;10.394;2023-02-04T09:53:41;6.90;99.90
3310;DHT22;1667;53.238;10.394;2023-02-04T09:58:40;7.40;99.90
3310;DHT22;1667;53.238;10.394;2023-02-04T10:03:42;7.20;99.90
3310;DHT22;1667;53.238;10.394;2023-02-04T10:08:44;7.30;99.90
3310;DHT22;1667;53.238;10.394;2023-02-04T10:13:46;7.30;99.90
3310;DHT22;1667;53.238;10.394;2023-02-04T10:18:48;7.50;99.90
3310;DHT22;1667;53.238;10.394;2023-02-04T10:23:49;7.60;99.90
3310;DHT22;1667;53.238;10.394;2023-02-04T10:28:48;7.90;99.90
3310;DHT22;1667;53.238;10.394;2023-02-04T10:33:48;8.10;99.90
3310;DHT22;1667;53.238;10.394;2023-02-04T10:38:58;8.20;99.90
3310;DHT22;1667;53.238;10.394;2023-02-04T10:44:04;8.20;99.90
3310;DHT22;1667;53.238;10.394;2023-02-04T10:49:13;8.20;99.90
3310;DHT22;1667;53.238;10.394;2023-02-04T10:54:14;8.30;99.90
3310;DHT22;1667;53.238;10.394;2023-02-04T10:59:28;8.40;99.90
3310;DHT22;1667;53.238;10.394;2023-02-04T11:04:28;8.50;99.90
3310;DHT22;1667;53.238;10.394;2023-02-04T11:09:26;8.50;99.90
3310;DHT22;1667;53.238;10.394;2023-02-04T11:14:27;8.50;99.90
3310;DHT22;1667;53.238;10.394;2023-02-04T11:19:35;8.50;99.90
3310;DHT22;1667;53.238;10.394;2023-02-04T11:24:34;8.60;99.90
3310;DHT22;1667;53.238;10.394;2023-02-04T11:29:35;8.60;99.90
3310;DHT22;1667;53.238;10.394;2023-02-04T11:34:46;8.60;99.90
3310;DHT22;1667;53.238;10.394;2023-02-04T11:39:47;8.60;99.90
3310;DHT22;1667;53.238;10.394;2023-02-04T11:44:53;8.70;99.90
3310;DHT22;1667;53.238;10.394;2023-02-04T11:49:56;8.80;99.90
3310;DHT22;1667;53.238;10.394;2023-02-04T11:54:57;8.80;99.90
3310;DHT22;1667;53.238;10.394;2023-02-04T11:59:56;8.80;99.90
3310;DHT22;1667;53.238;10.394;2023-02-04T12:05:11;8.90;99.90
3310;DHT22;1667;53.238;10.394;2023-02-04T12:10:12;9.00;99.90
3310;DHT22;1667;53.238;10.394;2023-02-04T12:15:17;9.00;99.90
3310;DHT22;1667;53.238;10.394;2023-02-04T12:20:21;9.10;99.90
3310;DHT22;1667;53.238;10.394;2023-02-04T12:25:20;9.10;99.90
3310;DHT22;1667;53.238;10.394;2023-02-04T12:30:19;9.00;99.90
3310;DHT22;1667;53.238;10.394;2023-02-04T12:35:18;8.90;99.90
3310;DHT22;1667;53.238;10.394;2023-02-04T12:40:20;8.90;99.90
3310;DHT22;1667;53.238;10.394;2023-02-04T12:45:18;8.70;99.90
3310;DHT22;1667;53.238;10.394;2023-02-04T12:50:18;8.80;99.90
3310;DHT22;1667;53.238;10.394;2023-02-04T12:55:20;8.90;99.90
3310;DHT22;1667;53.238;10.394;2023-02-04T13:00:20;9.00;99.90
3310;DHT22;1667;53.238;10.394;2023-02-04T13:05:19;9.00;99.90
3310;DHT22;1667;53.238;10.394;2023-02-04T13:10:20;9.00;99.90
3310;DHT22;1667;53.238;10.394;2023-02-04T13:15:20;9.10;99.90
3310;DHT22;1667;53.238;10.394;2023-02-04T13:20:19;9.10;99.90
3310;DHT22;1667;53.238;10.394;2023-02-04T13:25:17;9.10;99.90
3310;DHT22;1667;53.238;10.394;2023-02-04T13:30:17;9.20;99.90
3310;DHT22;1667;53.238;10.394;2023-02-04T13:35:16;9.30;99.90
3310;DHT22;1667;53.238;10.394;2023-02-04T13:40:15;9.30;99.90
3310;DHT22;1667;53.238;10.394;2023-02-04T13:45:14;9.30;99.90
3310;DHT22;1667;53.238;10.394;2023-02-04T13:50:16;9.30;99.90
3310;DHT22;1667;53.238;10.394;2023-02-04T13:55:15;9.20;99.90
3310;DHT22;1667;53.238;10.394;2023-02-04T14:00:14;9.30;99.90
3310;DHT22;1667;53.238;10.394;2023-02-04T14:05:13;9.30;99.90
3310;DHT22;1667;53.238;10.394;2023-02-04T14:10:15;9.30;99.90
3310;DHT22;1667;53.238;10.394;2023-02-04T14:15:14;9.30;99.90
3310;DHT22;1667;53.238;10.394;2023-02-04T14:27:03;9.20;99.90
3310;DHT22;1667;53.238;10.394;2023-02-04T14:32:04;9.30;99.90
3310;DHT22;1667;53.238;10.394;2023-02-04T14:37:02;9.20;99.90
3310;DHT22;1667;53.238;10.394;2023-02-04T14:42:02;9.20;99.90
3310;DHT22;1667;53.238;10.394;2023-02-04T14:47:01;9.20;99.90
3310;DHT22;1667;53.238;10.394;2023-02-04T14:51:59;9.10;99.90
3310;DHT22;1667;53.238;10.394;2023-02-04T14:57:00;9.00;99.90
3310;DHT22;1667;53.238;10.394;2023-02-04T15:01:59;9.00;99.90
3310;DHT22;1667;53.238;10.394;2023-02-04T15:06:58;9.00;99.90
3310;DHT22;1667;53.238;10.394;2023-02-04T15:11:57;8.90;99.90
3310;DHT22;1667;53.238;10.394;2023-02-04T15:16:55;8.90;99.90
3310;DHT22;1667;53.238;10.394;2023-02-04T15:21:55;8.90;99.90
3310;DHT22;1667;53.238;10.394;2023-02-04T15:26:54;8.80;99.90
3310;DHT22;1667;53.238;10.394;2023-02-04T15:31:52;8.70;99.90
3310;DHT22;1667;53.238;10.394;2023-02-04T15:36:52;8.50;99.90
3310;DHT22;1667;53.238;10.394;2023-02-04T15:41:52;8.60;99.90
3310;DHT22;1667;53.238;10.394;2023-02-04T15:46:50;8.50;99.90
3310;DHT22;1667;53.238;10.394;2023-02-04T15:51:50;8.50;99.90
3310;DHT22;1667;53.238;10.394;2023-02-04T15:56:48;8.50;99.90
3310;DHT22;1667;53.238;10.394;2023-02-04T16:01:48;8.40;99.90
3310;DHT22;1667;53.238;10.394;2023-02-04T16:06:47;8.30;99.90
3310;DHT22;1667;53.238;10.394;2023-02-04T16:11:54;8.20;99.90
3310;DHT22;1667;53.238;10.394;2023-02-04T16:16:54;8.10;99.90
3310;DHT22;1667;53.238;10.394;2023-02-04T16:21:52;8.00;99.90
3310;DHT22;1667;53.238;10.394;2023-02-04T16:26:51;8.00;99.90
3310;DHT22;1667;53.238;10.394;2023-02-04T16:31:49;8.00;99.90
3310;DHT22;1667;53.238;10.394;2023-02-04T16:36:51;8.10;99.90
3310;DHT22;1667;53.238;10.394;2023-02-04T16:41:49;8.00;99.90
3310;DHT22;1667;53.238;10.394;2023-02-04T16:46:48;8.00;99.90
3310;DHT22;1667;53.238;10.394;2023-02-04T16:51:47;7.80;99.90
3310;DHT22;1667;53.238;10.394;2023-02-04T16:56:47;7.80;99.90
3310;DHT22;1667;53.238;10.394;2023-02-04T17:01:45;7.80;99.90
3310;DHT22;1667;53.238;10.394;2023-02-04T17:06:44;7.80;99.90
3310;DHT22;1667;53.238;10.394;2023-02-04T17:11:43;7.80;99.90
3310;DHT22;1667;53.238;10.394;2023-02-04T17:16:43;7.70;99.90
3310;DHT22;1667;53.238;10.394;2023-02-04T17:21:42;7.70;99.90
3310;DHT22;1667;53.238;10.394;2023-02-04T17:26:40;7.70;99.90
3310;DHT22;1667;53.238;10.394;2023-02-04T17:31:39;7.70;99.90
3310;DHT22;1667;53.238;10.394;2023-02-04T17:36:40;7.70;99.90
3310;DHT22;1667;53.238;10.394;2023-02-04T17:41:39;7.60;99.90
3310;DHT22;1667;53.238;10.394;2023-02-04T17:46:37;7.60;99.90
3310;DHT22;1667;53.238;10.394;2023-02-04T17:51:36;7.60;99.90
3310;DHT22;1667;53.238;10.394;2023-02-04T17:56:36;7.60;99.90
3310;DHT22;1667;53.238;10.394;2023-02-04T18:01:34;7.50;99.90
3310;DHT22;1667;53.238;10.394;2023-02-04T18:06:33;7.40;99.90
3310;DHT22;1667;53.238;10.394;2023-02-04T18:11:38;7.40;99.90
3310;DHT22;1667;53.238;10.394;2023-02-04T18:16:38;7.40;99.90
3310;DHT22;1667;53.238;10.394;2023-02-04T18:21:38;7.30;99.90
3310;DHT22;1667;53.238;10.394;2023-02-04T18:26:43;7.20;99.90
3310;DHT22;1667;53.238;10.394;2023-02-04T18:31:45;7.20;99.90
3310;DHT22;1667;53.238;10.394;2023-02-04T18:36:46;7.20;99.90
3310;DHT22;1667;53.238;10.394;2023-02-04T18:41:49;7.20;99.90
3310;DHT22;1667;53.238;10.394;2023-02-04T18:46:47;7.10;99.90
3310;DHT22;1667;53.238;10.394;2023-02-04T18:51:46;7.10;99.90
3310;DHT22;1667;53.238;10.394;2023-02-04T18:56:46;7.10;99.90
3310;DHT22;1667;53.238;10.394;2023-02-04T19:01:46;7.10;99.90
3310;DHT22;1667;53.238;10.394;2023-02-04T19:06:46;7.00;99.90
3310;DHT22;1667;53.238;10.394;2023-02-04T19:11:48;7.10;99.90
3310;DHT22;1667;53.238;10.394;2023-02-04T19:16:49;7.00;99.90
3310;DHT22;1667;53.238;10.394;2023-02-04T19:21:49;6.90;99.90
3310;DHT22;1667;53.238;10.394;2023-02-04T19:26:53;6.70;99.90
3310;DHT22;1667;53.238;10.394;2023-02-04T19:31:55;6.70;99.90
3310;DHT22;1667;53.238;10.394;2023-02-04T19:36:55;7.10;99.90
3310;DHT22;1667;53.238;10.394;2023-02-04T19:41:55;6.80;99.90
3310;DHT22;1667;53.238;10.394;2023-02-04T19:46:55;7.10;99.90
3310;DHT22;1667;53.238;10.394;2023-02-04T19:51:56;6.80;99.90
3310;DHT22;1667;53.238;10.394;2023-02-04T19:56:56;6.80;99.90
3310;DHT22;1667;53.238;10.394;2023-02-04T20:02:00;7.20;99.90
3310;DHT22;1667;53.238;10.394;2023-02-04T20:06:59;6.80;99.90
3310;DHT22;1667;53.238;10.394;2023-02-04T20:12:01;6.80;99.90
3310;DHT22;1667;53.238;10.394;2023-02-04T20:22:44;6.80;99.90
3310;DHT22;1667;53.238;10.394;2023-02-04T20:27:45;6.90;99.90
3310;DHT22;1667;53.238;10.394;2023-02-04T20:32:46;6.80;99.90
3310;DHT22;1667;53.238;10.394;2023-02-04T20:37:50;6.80;99.90
3310;DHT22;1667;53.238;10.394;2023-02-04T20:42:53;6.80;99.90
3310;DHT22;1667;53.238;10.394;2023-02-04T20:47:58;6.80;99.90
3310;DHT22;1667;53.238;10.394;2023-02-04T20:53:18;6.80;99.90
3310;DHT22;1667;53.238;10.394;2023-02-04T20:58:21;6.70;99.90
3310;DHT22;1667;53.238;10.394;2023-02-04T21:03:25;7.00;99.90
3310;DHT22;1667;53.238;10.394;2023-02-04T21:08:42;6.70;99.90
3310;DHT22;1667;53.238;10.394;2023-02-04T21:13:42;6.70;99.90
3310;DHT22;1667;53.238;10.394;2023-02-04T21:18:40;6.70;99.90
3310;DHT22;1667;53.238;10.394;2023-02-04T21:23:39;6.60;99.90
3310;DHT22;1667;53.238;10.394;2023-02-04T21:28:37;6.50;99.90
3310;DHT22;1667;53.238;10.394;2023-02-04T21:33:37;6.50;99.90
3310;DHT22;1667;53.238;10.394;2023-02-04T21:38:35;6.70;99.90
3310;DHT22;1667;53.238;10.394;2023-02-04T21:43:34;6.60;99.90
3310;DHT22;1667;53.238;10.394;2023-02-04T21:48:33;6.50;99.90
3310;DHT22;1667;53.238;10.394;2023-02-04T21:53:32;6.40;99.90
3310;DHT22;1667;53.238;10.394;2023-02-04T21:58:31;6.30;99.90
3310;DHT22;1667;53.238;10.394;2023-02-04T22:03:29;6.30;99.90
3310;DHT22;1667;53.238;10.394;2023-02-04T22:08:27;6.30;99.90
3310;DHT22;1667;53.238;10.394;2023-02-04T22:13:27;6.30;99.90
3310;DHT22;1667;53.238;10.394;2023-02-04T22:18:43;6.30;99.90
3310;DHT22;1667;53.238;10.394;2023-02-04T22:23:41;6.30;99.90
3310;DHT22;1667;53.238;10.394;2023-02-04T22:28:41;6.30;99.90
3310;DHT22;1667;53.238;10.394;2023-02-04T22:33:40;6.30;99.90
3310;DHT22;1667;53.238;10.394;2023-02-04T22:38:38;6.50;99.90
3310;DHT22;1667;53.238;10.394;2023-02-04T22:43:40;6.30;99.90
3310;DHT22;1667;53.238;10.394;2023-02-04T22:49:04;6.20;99.90
3310;DHT22;1667;53.238;10.394;2023-02-04T22:54:03;6.20;99.90
3310;DHT22;1667;53.238;10.394;2023-02-04T22:59:03;6.10;99.90
3310;DHT22;1667;53.238;10.394;2023-02-04T23:04:02;6.20;99.90
3310;DHT22;1667;53.238;10.394;2023-02-04T23:09:00;6.00;99.90
3310;DHT22;1667;53.238;10.394;2023-02-04T23:13:59;6.00;99.90
3310;DHT22;1667;53.238;10.394;2023-02-04T23:18:59;6.00;99.90
3310;DHT22;1667;53.238;10.394;2023-02-04T23:23:58;5.90;99.90
3310;DHT22;1667;53.238;10.394;2023-02-04T23:28:57;5.80;99.90
3310;DHT22;1667;53.238;10.394;2023-02-04T23:34:16;5.80;99.90
3310;DHT22;1667;53.238;10.394;2023-02-04T23:39:15;5.70;99.90
3310;DHT22;1667;53.238;10.394;2023-02-04T23:44:14;5.70;99.90
3310;DHT22;1667;53.238;10.394;2023-02-04T23:49:12;5.60;99.90
3310;DHT22;1667;53.238;10.394;2023-02-04T23:54:13;5.60;99.90
3310;DHT22;1667;53.238;10.394;2023-02-04T23:59:11;5.60;99.90
